Time;durP1;ratioP1;P1;durP2;ratioP2;P2;SDS_P1;SDS_P2;PMS_P1;PMS_P2;Temp;Humidity;BMP_temperature;BMP_pressure;BME280_temperature;BME280_humidity;BME280_pressure;Samples;Min_cycle;Max_cycle;Signal;HPM_P1;HPM_P2
2021/12/22 00:01:25;;;;;;;9.82;7.50;;;;;;;20.91;26.05;99764.97;5129973;27;20446;-57
2021/12/22 00:03:52;;;;;;;10.45;7.65;;;;;;;20.88;26.22;99760.97;5130032;27;20193;-56
2021/12/22 00:06:23;;;;;;;9.85;7.53;;;;;;;20.86;26.21;99766.91;5129821;27;20047;-57
2021/12/22 00:08:49;;;;;;;9.80;7.50;;;;;;;20.86;26.27;99775.25;5129974;27;20039;-57
2021/12/22 00:11:15;;;;;;;9.48;7.43;;;;;;;20.84;26.03;99769.22;5129719;28;20085;-60
2021/12/22 00:13:41;;;;;;;9.75;7.53;;;;;;;20.83;25.98;99767.63;5129820;27;20047;-60
2021/12/22 00:16:07;;;;;;;8.77;6.78;;;;;;;20.83;26.11;99759.28;5129859;27;20043;-59
2021/12/22 00:18:32;;;;;;;9.38;7.60;;;;;;;20.82;26.35;99760.44;5129518;27;20035;-59
2021/12/22 00:20:58;;;;;;;8.93;6.68;;;;;;;20.81;26.22;99760.81;5129702;27;20043;-59
2021/12/22 00:23:24;;;;;;;10.38;7.40;;;;;;;20.82;26.28;99754.91;5129640;28;20407;-59
2021/12/22 00:25:49;;;;;;;10.43;7.68;;;;;;;20.81;26.25;99756.06;5129579;27;20487;-59
2021/12/22 00:28:15;;;;;;;9.52;7.38;;;;;;;20.83;26.09;99759.28;5129555;27;20039;-59
2021/12/22 00:30:41;;;;;;;10.25;7.25;;;;;;;20.80;26.01;99760.03;5129509;27;20035;-60
2021/12/22 00:33:09;;;;;;;10.55;7.85;;;;;;;20.78;26.19;99762.34;5129682;28;20047;-60
2021/12/22 00:35:43;;;;;;;10.43;7.72;;;;;;;20.80;25.96;99764.78;5127144;28;20071;-57
2021/12/22 00:38:11;;;;;;;11.32;7.65;;;;;;;20.81;26.07;99755.25;5129238;27;20460;-57
2021/12/22 00:40:37;;;;;;;9.80;7.45;;;;;;;20.78;25.96;99754.00;5129404;27;20074;-56
2021/12/22 00:43:03;;;;;;;9.38;7.30;;;;;;;20.79;26.01;99765.97;5125417;27;20039;-57
2021/12/22 00:45:31;;;;;;;11.00;7.53;;;;;;;20.79;25.93;99761.19;5132277;27;20055;-59
2021/12/22 00:47:57;;;;;;;9.45;7.47;;;;;;;20.79;25.95;99763.19;5132700;28;20134;-60
2021/12/22 00:50:22;;;;;;;10.50;7.68;;;;;;;20.79;26.00;99760.41;5133015;27;20126;-60
2021/12/22 00:52:49;;;;;;;10.95;8.02;;;;;;;20.76;26.10;99756.34;5132659;28;20047;-60
2021/12/22 00:55:18;;;;;;;10.38;7.68;;;;;;;20.76;25.94;99756.34;5129833;28;20073;-60
2021/12/22 00:57:48;;;;;;;10.65;7.40;;;;;;;20.78;25.97;99769.88;5132603;27;20146;-60
2021/12/22 01:00:15;;;;;;;9.38;7.45;;;;;;;20.78;26.22;99767.91;5129889;28;20129;-59
2021/12/22 01:02:42;;;;;;;10.43;7.70;;;;;;;20.78;26.20;99767.91;5132851;27;20045;-60
2021/12/22 01:05:08;;;;;;;9.32;7.00;;;;;;;20.77;26.03;99763.50;5132504;27;20499;-60
2021/12/22 01:07:34;;;;;;;9.75;7.68;;;;;;;20.77;26.17;99766.28;5129747;28;20126;-60
2021/12/22 01:09:59;;;;;;;10.88;7.28;;;;;;;20.77;26.04;99766.28;5132674;28;20122;-60
2021/12/22 01:12:25;;;;;;;9.88;7.53;;;;;;;20.75;26.21;99751.97;5132426;27;20471;-60
2021/12/22 01:14:50;;;;;;;9.82;7.30;;;;;;;20.77;26.21;99757.16;5132481;27;20517;-60
2021/12/22 01:17:17;;;;;;;10.48;7.60;;;;;;;20.75;26.14;99757.53;5132172;28;20039;-60
2021/12/22 01:20:05;;;;;;;10.32;7.45;;;;;;;20.76;26.23;99761.09;5132508;27;20039;-59
2021/12/22 01:25:07;;;;;;;11.38;8.25;;;;;;;20.74;26.12;99761.47;5132755;27;20114;-57
2021/12/22 01:27:41;;;;;;;10.82;7.95;;;;;;;20.75;26.12;99762.28;5132728;28;20035;-56
2021/12/22 01:30:09;;;;;;;10.77;7.70;;;;;;;20.74;26.06;99753.16;5132713;27;20414;-57
2021/12/22 01:32:35;;;;;;;9.95;7.55;;;;;;;20.74;26.18;99758.69;5129645;28;20595;-59
2021/12/22 01:35:01;;;;;;;9.30;6.90;;;;;;;20.73;25.89;99762.66;5132301;27;20031;-60
2021/12/22 01:37:26;;;;;;;9.48;7.45;;;;;;;20.71;26.08;99762.19;5131860;27;20031;-60
2021/12/22 01:39:52;;;;;;;9.52;7.45;;;;;;;20.72;26.11;99761.06;5132181;28;20063;-57
2021/12/22 01:42:17;;;;;;;9.65;7.07;;;;;;;20.72;26.11;99761.06;5132073;27;20031;-57
2021/12/22 01:50:29;;;;;;;10.00;7.32;;;;;;;20.69;26.08;99770.09;5129651;28;20108;-57
2021/12/22 01:52:55;;;;;;;10.38;7.70;;;;;;;20.71;25.85;99759.41;5129202;28;20434;-60
2021/12/22 01:55:33;;;;;;;11.38;7.88;;;;;;;20.78;25.95;99778.22;5130820;27;20091;-59
2021/12/22 01:58:00;;;;;;;9.38;7.20;;;;;;;20.78;25.75;99767.91;5129644;28;20130;-60
2021/12/22 02:00:29;;;;;;;10.40;7.78;;;;;;;20.77;25.97;99771.06;5131985;27;20479;-59
2021/12/22 02:02:56;;;;;;;9.90;7.00;;;;;;;20.76;25.98;99775.81;5131732;27;20506;-60
2021/12/22 02:05:22;;;;;;;9.50;6.82;;;;;;;20.77;25.93;99780.19;5131706;27;20089;-60
2021/12/22 02:07:49;;;;;;;9.10;6.90;;;;;;;20.84;25.71;99777.56;5131720;27;20071;-60
2021/12/22 02:12:50;;;;;;;9.00;6.90;;;;;;;20.88;25.74;99778.44;5131833;27;20050;-60
2021/12/22 02:15:16;;;;;;;8.30;5.95;;;;;;;20.84;25.62;99774.78;5128792;28;20551;-57
2021/12/22 02:17:41;;;;;;;7.65;6.10;;;;;;;20.85;25.81;99783.94;5131565;28;20047;-57
2021/12/22 02:20:08;;;;;;;8.82;6.47;;;;;;;20.85;25.64;99784.72;5131690;28;20051;-57
2021/12/22 02:22:34;;;;;;;8.30;6.63;;;;;;;20.83;25.86;99792.63;5131631;27;20126;-57
2021/12/22 02:25:06;;;;;;;8.25;6.20;;;;;;;20.82;25.65;99785.47;5131577;27;20096;-57
2021/12/22 02:27:41;;;;;;;8.77;6.20;;;;;;;20.81;25.92;99792.22;5131417;27;20827;-57
2021/12/22 02:30:15;;;;;;;8.38;6.32;;;;;;;20.79;25.83;99791.78;5131232;27;20269;-57
2021/12/22 02:35:06;;;;;;;8.30;6.07;;;;;;;20.79;25.92;99804.88;5131150;28;20027;-56
2021/12/22 02:37:41;;;;;;;8.63;6.40;;;;;;;20.77;25.96;99807.19;5130906;27;20371;-57
2021/12/22 02:40:13;;;;;;;8.50;5.97;;;;;;;20.76;25.88;99805.59;5131405;27;20047;-57
2021/12/22 02:42:39;;;;;;;6.80;5.80;;;;;;;20.78;25.92;99814.34;5129139;28;20043;-57
2021/12/22 02:45:16;;;;;;;8.25;6.05;;;;;;;20.78;25.89;99800.47;5130945;27;20039;-57
2021/12/22 02:47:42;;;;;;;8.77;6.70;;;;;;;20.78;25.92;99806.81;5128972;28;20133;-56
2021/12/22 02:50:10;;;;;;;8.75;6.45;;;;;;;20.78;25.63;99803.25;5131006;27;20471;-56
2021/12/22 02:53:26;;;;;;;9.50;6.40;;;;;;;20.78;25.83;99806.81;5131107;27;20066;-57
2021/12/22 02:55:29;;;;;;;8.35;6.13;;;;;;;20.77;25.89;99791.31;5116940;28;20436;-57
2021/12/22 02:57:58;;;;;;;8.82;6.68;;;;;;;20.77;25.63;99794.09;5130964;28;20047;-56
2021/12/22 03:05:29;;;;;;;9.10;6.50;;;;;;;20.74;25.63;99786.50;5130890;28;20035;-57
2021/12/22 03:07:55;;;;;;;8.98;6.68;;;;;;;20.73;25.85;99787.69;5130233;27;20441;-57
2021/12/22 03:10:21;;;;;;;7.95;6.70;;;;;;;20.76;25.77;99788.91;5130800;27;20039;-57
2021/12/22 03:12:53;;;;;;;9.82;6.85;;;;;;;20.75;25.80;99790.88;5130779;27;20414;-57
2021/12/22 03:15:20;;;;;;;8.05;6.25;;;;;;;20.73;25.87;99789.66;5127926;28;20108;-57
2021/12/22 03:17:47;;;;;;;9.68;6.60;;;;;;;20.74;25.52;99794.03;5130430;27;20069;-57
2021/12/22 03:20:14;;;;;;;8.95;6.55;;;;;;;20.73;25.68;99798.00;5130649;27;20047;-57
2021/12/22 03:22:43;;;;;;;8.80;6.65;;;;;;;20.72;25.72;99805.53;5130847;27;20169;-57
2021/12/22 03:25:14;;;;;;;8.88;6.68;;;;;;;20.69;25.50;99799.88;5130499;27;20549;-57
2021/12/22 03:27:44;;;;;;;8.13;6.53;;;;;;;20.70;25.73;99805.06;5130672;27;20071;-57
2021/12/22 03:30:12;;;;;;;10.07;7.18;;;;;;;20.71;25.86;99803.09;5116700;28;20050;-57
2021/12/22 03:32:38;;;;;;;9.07;6.88;;;;;;;20.71;25.87;99805.88;5127435;28;20035;-57
2021/12/22 03:35:04;;;;;;;8.63;6.22;;;;;;;20.72;25.73;99813.88;5130264;27;20043;-56
2021/12/22 03:37:29;;;;;;;9.68;6.90;;;;;;;20.70;25.66;99810.63;5130352;27;20085;-57
2021/12/22 03:39:55;;;;;;;9.75;7.35;;;;;;;20.68;25.73;99801.06;5130136;28;20085;-57
2021/12/22 03:42:20;;;;;;;7.90;6.25;;;;;;;20.68;25.54;99807.41;5130281;28;20533;-57
2021/12/22 03:44:46;;;;;;;9.00;6.40;;;;;;;20.69;25.80;99809.03;5130174;27;20545;-57
2021/12/22 03:47:12;;;;;;;8.65;6.78;;;;;;;20.65;25.67;99802.59;5130128;28;20050;-56
2021/12/22 03:49:37;;;;;;;8.13;6.22;;;;;;;20.68;25.66;99812.16;5130122;27;20104;-57
2021/12/22 03:52:04;;;;;;;8.95;6.95;;;;;;;20.67;25.74;99813.34;5130013;27;20122;-57
2021/12/22 03:54:30;;;;;;;9.25;7.05;;;;;;;20.66;25.60;99809.75;5130242;27;20126;-57
2021/12/22 03:56:56;;;;;;;8.15;6.10;;;;;;;20.67;25.83;99819.69;5130047;27;20129;-57
2021/12/22 03:59:23;;;;;;;8.18;6.32;;;;;;;20.65;25.73;99808.16;5130100;28;20452;-57
2021/12/22 04:01:49;;;;;;;8.20;6.00;;;;;;;20.64;25.63;99812.06;5129830;27;20043;-57
2021/12/22 04:04:18;;;;;;;8.25;6.50;;;;;;;20.65;25.57;99810.13;5129589;27;20045;-57
2021/12/22 04:06:45;;;;;;;8.55;6.28;;;;;;;20.65;25.60;99808.16;5129871;27;20050;-57
2021/12/22 04:09:12;;;;;;;8.27;6.25;;;;;;;20.70;25.41;99801.47;5129939;27;20069;-60
2021/12/22 04:11:38;;;;;;;8.75;6.78;;;;;;;20.77;25.53;99808.00;5129547;27;20047;-60
2021/12/22 04:14:04;;;;;;;9.10;6.88;;;;;;;20.81;25.32;99808.88;5129785;28;20035;-60
2021/12/22 04:16:29;;;;;;;8.27;6.30;;;;;;;20.82;25.26;99807.72;5129751;27;20406;-57
2021/12/22 04:18:55;;;;;;;8.10;6.40;;;;;;;20.77;25.55;99794.09;5130545;27;20747;-57
2021/12/22 04:21:20;;;;;;;8.82;6.50;;;;;;;20.77;25.36;99796.88;5133209;27;20058;-57
2021/12/22 04:23:45;;;;;;;8.15;6.30;;;;;;;20.77;25.34;99799.66;5133495;27;20051;-57
2021/12/22 04:26:12;;;;;;;7.88;6.15;;;;;;;20.76;25.49;99802.81;5133363;28;20498;-57
2021/12/22 04:28:40;;;;;;;7.35;5.63;;;;;;;20.74;25.33;99800.41;5133330;27;20456;-57
2021/12/22 04:31:05;;;;;;;7.22;5.60;;;;;;;20.73;25.55;99798.00;5133218;27;20041;-57
2021/12/22 04:33:31;;;;;;;7.20;5.80;;;;;;;20.73;25.45;99800.78;5133250;27;20039;-57
2021/12/22 04:35:56;;;;;;;8.35;5.80;;;;;;;20.71;25.51;99801.13;5133142;27;20103;-57
2021/12/22 04:38:22;;;;;;;7.93;5.70;;;;;;;20.71;25.48;99798.34;5133105;27;20418;-57
2021/12/22 04:40:48;;;;;;;7.93;5.70;;;;;;;20.69;25.44;99799.88;5133466;27;20069;-56
2021/12/22 04:43:13;;;;;;;8.15;5.95;;;;;;;20.69;25.69;99800.69;5133094;28;21086;-57
2021/12/22 04:45:39;;;;;;;7.13;5.78;;;;;;;20.70;25.67;99804.25;5132974;28;20081;-56
2021/12/22 04:48:05;;;;;;;8.15;5.70;;;;;;;20.68;25.40;99809.38;5132941;27;20080;-57
2021/12/22 04:50:32;;;;;;;7.95;6.00;;;;;;;20.68;25.75;99812.16;5133092;27;20035;-57
2021/12/22 04:53:02;;;;;;;7.03;5.47;;;;;;;20.68;25.45;99801.06;5132794;27;20126;-57
2021/12/22 04:55:28;;;;;;;7.53;5.88;;;;;;;20.65;25.63;99808.16;5132773;28;20118;-56
2021/12/22 04:57:56;;;;;;;7.55;5.25;;;;;;;20.66;25.73;99806.19;5132826;27;20043;-57
2021/12/22 05:00:24;;;;;;;7.25;5.32;;;;;;;20.66;25.71;99809.75;5130285;28;20049;-57
2021/12/22 05:02:50;;;;;;;7.78;5.75;;;;;;;20.66;25.38;99806.19;5122658;28;20047;-57
2021/12/22 05:05:16;;;;;;;7.43;5.60;;;;;;;20.66;25.51;99803.41;5132600;27;20035;-57
2021/12/22 05:07:43;;;;;;;7.68;5.90;;;;;;;20.64;25.69;99806.50;5132795;27;20072;-57
2021/12/22 05:10:10;;;;;;;6.97;5.43;;;;;;;20.64;25.58;99806.50;5132668;27;20134;-56
2021/12/22 05:12:35;;;;;;;7.55;6.03;;;;;;;20.64;25.65;99814.84;5132380;27;20047;-57
2021/12/22 05:15:01;;;;;;;7.70;5.90;;;;;;;20.63;25.77;99820.78;5132573;28;20078;-57
2021/12/22 05:20:24;;;;;;;7.45;6.00;;;;;;;20.63;25.64;99824.38;5070171;28;20028;-57
2021/12/22 05:22:51;;;;;;;6.88;5.50;;;;;;;20.64;25.77;99825.16;5069664;28;20126;-57
2021/12/22 05:25:16;;;;;;;7.40;5.95;;;;;;;20.62;25.79;99825.53;5066755;28;20228;-57
2021/12/22 05:27:42;;;;;;;7.68;5.97;;;;;;;20.63;25.93;99827.16;5070797;28;20139;-57
2021/12/22 05:30:10;;;;;;;9.40;6.55;;;;;;;20.65;25.74;99826.81;5068352;28;20111;-57
2021/12/22 05:32:36;;;;;;;7.80;5.85;;;;;;;20.64;25.92;99822.41;5073766;28;20086;-57
2021/12/22 05:35:05;;;;;;;8.20;5.90;;;;;;;20.63;25.68;99821.59;5129491;28;20039;-57
2021/12/22 05:37:31;;;;;;;9.52;6.57;;;;;;;20.65;25.58;99821.25;5132003;27;20066;-56
2021/12/22 05:39:56;;;;;;;8.05;6.10;;;;;;;20.64;25.80;99822.41;5131759;27;20454;-57
2021/12/22 05:42:27;;;;;;;8.70;6.65;;;;;;;20.63;25.64;99816.03;5132092;27;20046;-57
2021/12/22 05:44:52;;;;;;;9.55;6.75;;;;;;;20.59;25.79;99820.72;5132062;27;20396;-57
2021/12/22 05:47:18;;;;;;;8.32;6.07;;;;;;;20.59;25.71;99820.72;5131832;28;20060;-57
2021/12/22 05:49:44;;;;;;;8.35;6.45;;;;;;;20.59;25.68;99827.09;5131834;27;20039;-57
2021/12/22 05:52:10;;;;;;;7.65;6.20;;;;;;;20.60;25.67;99827.88;5132114;27;20092;-57
2021/12/22 05:54:36;;;;;;;8.57;6.38;;;;;;;20.61;25.66;99821.97;5132030;27;20065;-57
2021/12/22 05:57:01;;;;;;;8.35;6.00;;;;;;;20.60;25.75;99827.88;5128964;28;20608;-60
2021/12/22 05:59:27;;;;;;;9.32;6.68;;;;;;;20.57;25.60;99828.59;5131825;28;20047;-60
2021/12/22 06:01:52;;;;;;;8.50;6.07;;;;;;;20.55;25.55;99825.38;5131785;27;20092;-60
2021/12/22 06:04:18;;;;;;;8.65;6.40;;;;;;;20.56;25.67;99827.00;5131682;28;20035;-60
2021/12/22 06:06:43;;;;;;;7.50;5.90;;;;;;;20.53;25.58;99828.53;5131754;28;20553;-57
2021/12/22 06:09:09;;;;;;;8.20;6.13;;;;;;;20.56;25.63;99827.00;5131743;27;20054;-57
2021/12/22 06:11:34;;;;;;;7.47;5.75;;;;;;;20.56;25.58;99835.31;5131725;27;20088;-59
2021/12/22 06:14:00;;;;;;;8.93;6.45;;;;;;;20.59;25.40;99837.41;5131486;27;20099;-59
2021/12/22 06:16:27;;;;;;;8.20;6.28;;;;;;;20.60;25.52;99827.88;5131596;27;20136;-60
2021/12/22 06:18:57;;;;;;;8.50;6.35;;;;;;;20.58;25.69;99828.25;5131356;27;20043;-59
2021/12/22 06:21:23;;;;;;;8.20;6.35;;;;;;;20.61;25.56;99832.28;5128677;28;20047;-60
2021/12/22 06:23:49;;;;;;;7.85;6.22;;;;;;;20.58;25.57;99836.59;5131292;27;20039;-60
2021/12/22 06:26:14;;;;;;;7.90;6.30;;;;;;;20.61;25.66;99843.38;5131366;27;20062;-59
2021/12/22 06:28:40;;;;;;;9.88;6.95;;;;;;;20.62;25.41;99842.22;5131392;27;20106;-59
2021/12/22 06:31:06;;;;;;;8.55;6.18;;;;;;;20.63;25.39;99843.81;5131305;28;20515;-59
2021/12/22 06:33:32;;;;;;;8.15;6.05;;;;;;;20.63;25.43;99843.81;5121335;28;20411;-59
2021/12/22 06:35:57;;;;;;;7.28;5.72;;;;;;;20.64;25.51;99845.44;5131446;27;20054;-59
2021/12/22 06:38:23;;;;;;;8.25;6.13;;;;;;;20.64;25.37;99839.88;5131124;27;20066;-60
2021/12/22 06:40:49;;;;;;;8.30;6.10;;;;;;;20.70;25.31;99846.75;5131297;27;20044;-60
2021/12/22 06:43:15;;;;;;;7.68;5.97;;;;;;;20.76;25.25;99839.75;5120473;27;20446;-60
2021/12/22 06:45:40;;;;;;;7.63;6.00;;;;;;;20.82;25.12;99835.53;5131225;27;20414;-56
2021/12/22 06:48:06;;;;;;;8.63;6.50;;;;;;;20.81;25.02;99842.25;5131112;27;20552;-59
2021/12/22 06:50:31;;;;;;;8.55;6.10;;;;;;;20.81;25.02;99845.03;5131216;28;20396;-60
2021/12/22 06:52:57;;;;;;;7.93;6.00;;;;;;;20.79;25.33;99852.94;5131186;27;20058;-59
2021/12/22 06:55:22;;;;;;;8.40;6.50;;;;;;;20.79;25.27;99852.13;5130800;27;20390;-59
2021/12/22 06:57:48;;;;;;;52.97;8.13;;;;;;;20.81;25.38;99850.59;5130811;27;20043;-60
2021/12/22 07:00:14;;;;;;;34.15;7.68;;;;;;;20.80;25.51;99862.88;5130980;27;20035;-59
2021/12/22 07:02:39;;;;;;;53.75;8.00;;;;;;;20.77;25.52;99869.16;5130869;27;20051;-59
2021/12/22 07:05:08;;;;;;;34.25;7.38;;;;;;;20.75;25.30;99857.59;5130492;27;20043;-60
2021/12/22 07:07:34;;;;;;;32.72;7.70;;;;;;;20.75;25.51;99862.38;5130442;27;20518;-59
2021/12/22 07:10:00;;;;;;;22.52;6.88;;;;;;;20.75;25.28;99868.72;5130648;27;20127;-60
2021/12/22 07:12:26;;;;;;;27.33;6.07;;;;;;;20.74;25.36;99869.91;5130445;28;20126;-60
2021/12/22 07:14:52;;;;;;;27.98;6.45;;;;;;;20.75;25.28;99868.72;5130579;27;20047;-60
2021/12/22 07:17:17;;;;;;;17.00;6.75;;;;;;;20.74;25.45;99878.25;5130433;28;20478;-60
2021/12/22 07:19:43;;;;;;;20.17;6.25;;;;;;;20.74;25.19;99877.44;5130570;27;20039;-60
2021/12/22 07:22:08;;;;;;;23.00;6.65;;;;;;;20.73;25.25;99876.63;5130483;27;20050;-60
2021/12/22 07:24:34;;;;;;;16.52;6.38;;;;;;;20.72;25.36;99879.78;5130442;28;20043;-60
2021/12/22 07:27:00;;;;;;;12.88;6.30;;;;;;;20.72;25.42;99885.34;5130087;27;20058;-60
2021/12/22 07:29:25;;;;;;;15.05;6.45;;;;;;;20.72;25.47;99886.16;5130366;27;20035;-60
2021/12/22 07:31:51;;;;;;;17.48;6.65;;;;;;;20.73;25.37;99886.94;5130276;27;20039;-60
2021/12/22 07:34:29;;;;;;;12.02;6.68;;;;;;;20.73;25.16;99889.72;5128096;27;20072;-60
2021/12/22 07:37:00;;;;;;;12.73;5.68;;;;;;;20.72;25.30;99885.34;5126840;28;20043;-60
2021/12/22 07:39:26;;;;;;;14.02;6.47;;;;;;;20.72;25.36;99888.13;5125604;28;20039;-58
2021/12/22 07:41:51;;;;;;;14.85;6.63;;;;;;;20.71;25.20;99884.50;5128442;27;20402;-57
2021/12/22 07:44:17;;;;;;;11.10;6.05;;;;;;;20.74;25.05;99900.47;5127110;28;20054;-57
2021/12/22 07:46:42;;;;;;;9.82;5.95;;;;;;;20.76;24.93;99898.13;5125898;28;20075;-56
2021/12/22 07:49:08;;;;;;;9.88;6.22;;;;;;;20.78;24.76;99900.53;5123316;27;20391;-55
2021/12/22 07:51:33;;;;;;;12.15;6.63;;;;;;;20.79;24.72;99899.41;5128298;27;20448;-56
2021/12/22 07:54:00;;;;;;;12.25;6.80;;;;;;;20.81;24.70;99900.63;5123247;27;20047;-55
2021/12/22 07:56:26;;;;;;;12.38;7.20;;;;;;;20.80;24.79;99901.81;5123046;28;20115;-56
2021/12/22 07:58:53;;;;;;;14.88;6.93;;;;;;;20.82;24.62;99904.22;5126393;27;20046;-56
2021/12/22 08:01:19;;;;;;;12.93;6.80;;;;;;;20.82;24.78;99904.22;5129321;27;20380;-56
2021/12/22 08:03:44;;;;;;;10.13;6.70;;;;;;;20.84;24.84;99904.66;5124244;28;20563;-59
2021/12/22 08:06:10;;;;;;;12.80;6.45;;;;;;;20.85;25.21;99906.25;5124446;28;20149;-58
2021/12/22 08:08:36;;;;;;;15.20;7.15;;;;;;;20.82;25.46;99905.03;5125754;28;20139;-59
2021/12/22 08:11:01;;;;;;;14.05;6.97;;;;;;;20.79;25.50;99908.53;5126649;27;20039;-59
2021/12/22 08:13:27;;;;;;;19.55;7.38;;;;;;;20.83;25.81;99903.03;5121936;27;20610;-62
2021/12/22 08:15:52;;;;;;;14.07;7.85;;;;;;;20.82;26.12;99907.81;5126986;28;20043;-57
2021/12/22 08:18:17;;;;;;;32.17;8.15;;;;;;;20.86;26.06;99916.25;5126335;27;20045;-57
2021/12/22 08:20:43;;;;;;;23.92;8.20;;;;;;;20.91;26.12;99915.94;5127596;27;20047;-57
2021/12/22 08:23:09;;;;;;;20.58;7.82;;;;;;;20.84;27.44;99915.78;5126402;27;20070;-57
2021/12/22 08:25:35;;;;;;;16.38;7.30;;;;;;;20.77;27.52;99921.97;5121593;28;20039;-59
2021/12/22 08:28:00;;;;;;;13.07;7.75;;;;;;;20.80;27.32;99921.28;5121996;27;20662;-59
2021/12/22 08:30:27;;;;;;;11.18;7.53;;;;;;;20.86;27.02;99919.03;5125943;28;20122;-59
2021/12/22 08:32:53;;;;;;;14.32;7.70;;;;;;;20.88;26.95;99920.25;5127335;28;20083;-58
2021/12/22 08:35:20;;;;;;;10.63;7.13;;;;;;;20.92;26.64;99919.53;5116025;28;20130;-64
2021/12/22 08:40:30;;;;;;;9.48;7.00;;;;;;;20.97;26.49;99913.69;5126545;28;20133;-57
2021/12/22 08:42:55;;;;;;;10.77;7.50;;;;;;;21.01;26.52;99920.94;5128416;27;20042;-60
2021/12/22 08:45:21;;;;;;;12.57;7.15;;;;;;;21.04;26.59;99914.66;5126463;28;20112;-61
2021/12/22 08:47:47;;;;;;;26.98;8.60;;;;;;;21.06;26.56;99922.63;5124006;28;20058;-60
2021/12/22 08:50:17;;;;;;;20.55;7.60;;;;;;;21.04;26.29;99911.88;5127183;27;20031;-60
2021/12/22 08:52:42;;;;;;;15.77;7.93;;;;;;;21.09;26.37;99910.78;5124320;28;20569;-69
2021/12/22 08:55:08;;;;;;;14.73;7.53;;;;;;;21.05;26.21;99910.69;5123598;28;20161;-67
2021/12/22 08:57:34;;;;;;;22.60;7.25;;;;;;;21.05;26.32;99907.09;5127646;27;21128;-72
2021/12/22 09:00:01;;;;;;;12.50;8.20;;;;;;;21.05;26.23;99901.53;5126451;28;20046;-73
2021/12/22 09:02:26;;;;;;;11.00;7.55;;;;;;;21.08;26.20;99912.75;5123563;27;20031;-64
2021/12/22 09:04:52;;;;;;;13.68;8.30;;;;;;;21.11;26.27;99909.22;5123983;27;20031;-71
2021/12/22 09:07:17;;;;;;;13.35;7.50;;;;;;;21.17;26.24;99913.34;5129726;28;20046;-66
2021/12/22 09:09:44;;;;;;;18.83;8.20;;;;;;;21.22;26.21;99914.22;5130251;27;20039;-57
2021/12/22 09:12:10;;;;;;;11.40;7.32;;;;;;;21.26;26.32;99913.13;5131226;28;20064;-57
2021/12/22 09:14:35;;;;;;;16.52;7.90;;;;;;;21.29;26.37;99911.59;5114172;28;20047;-56
2021/12/22 09:17:01;;;;;;;13.15;7.80;;;;;;;21.30;26.31;99905.69;5130394;28;20047;-57
2021/12/22 09:19:26;;;;;;;12.75;8.20;;;;;;;21.35;26.77;99913.72;5130459;28;20047;-51
2021/12/22 09:21:52;;;;;;;10.32;7.57;;;;;;;21.44;26.79;99910.75;5123490;28;20450;-55
2021/12/22 09:24:18;;;;;;;11.20;7.32;;;;;;;21.54;26.82;99909.34;5129884;27;20486;-56
2021/12/22 09:26:44;;;;;;;10.50;7.75;;;;;;;21.57;26.60;99912.19;5131091;27;20023;-52
2021/12/22 09:29:11;;;;;;;11.20;7.47;;;;;;;21.63;26.66;99910.72;5130545;27;20039;-56
2021/12/22 09:31:37;;;;;;;13.23;7.53;;;;;;;21.62;26.51;99916.66;5129718;27;20039;-55
2021/12/22 09:34:03;;;;;;;13.50;7.30;;;;;;;21.57;26.27;99914.16;5127948;27;20050;-55
2021/12/22 09:36:28;;;;;;;11.63;8.10;;;;;;;21.51;26.14;99905.31;5129074;28;20653;-55
2021/12/22 09:38:54;;;;;;;13.35;7.80;;;;;;;21.47;25.88;99910.00;5127937;28;20239;-53
2021/12/22 09:41:20;;;;;;;14.10;7.82;;;;;;;21.46;25.93;99913.16;5127038;27;20062;-56
2021/12/22 09:43:45;;;;;;;11.77;7.97;;;;;;;21.43;25.58;99906.34;5128487;27;20096;-70
2021/12/22 09:46:15;;;;;;;14.50;7.70;;;;;;;21.39;25.64;99909.06;5126809;27;20035;-68
2021/12/22 09:48:51;;;;;;;10.45;7.88;;;;;;;21.40;25.64;99910.66;5122679;28;20058;-69
2021/12/22 09:53:51;;;;;;;11.07;8.18;;;;;;;21.39;25.33;99916.59;5122586;27;20039;-63
2021/12/22 09:56:21;;;;;;;10.85;8.05;;;;;;;21.38;25.37;99915.78;5125964;27;20043;-71
2021/12/22 09:58:49;;;;;;;11.93;8.00;;;;;;;21.38;25.43;99913.00;5116340;28;20039;-71
2021/12/22 10:01:20;;;;;;;11.13;8.20;;;;;;;21.39;25.34;99917.41;5126495;27;20043;-55
2021/12/22 10:03:46;;;;;;;11.40;8.50;;;;;;;21.40;25.19;99916.22;5127054;27;20100;-54
2021/12/22 10:06:11;;;;;;;11.73;7.88;;;;;;;21.39;25.27;99914.63;5127026;27;20051;-53
2021/12/22 10:08:51;;;;;;;12.38;8.60;;;;;;;21.40;25.18;99913.44;5127965;28;20043;-55
2021/12/22 10:11:16;;;;;;;11.50;8.32;;;;;;;21.40;25.42;99919.00;5127191;28;20040;-54
2021/12/22 10:13:44;;;;;;;11.02;8.15;;;;;;;21.42;25.41;99911.09;5128004;27;20058;-54
2021/12/22 10:16:12;;;;;;;12.52;8.63;;;;;;;21.43;25.38;99904.38;5126005;27;20519;-53
2021/12/22 10:18:38;;;;;;;13.23;8.07;;;;;;;21.46;25.09;99907.59;5126004;28;20040;-53
2021/12/22 10:21:16;;;;;;;11.27;7.90;;;;;;;21.46;25.19;99902.03;5123534;28;20092;-53
2021/12/22 10:23:51;;;;;;;10.40;7.35;;;;;;;21.46;25.15;99902.03;5125531;28;20531;-66
2021/12/22 10:26:23;;;;;;;10.35;7.78;;;;;;;21.48;25.20;99905.25;5127713;28;20039;-52
2021/12/22 10:28:54;;;;;;;10.15;7.85;;;;;;;21.50;25.39;99900.91;5126706;27;20057;-57
2021/12/22 10:31:31;;;;;;;10.60;7.80;;;;;;;21.50;25.10;99895.34;5125828;28;20134;-54
2021/12/22 10:33:58;;;;;;;10.45;7.57;;;;;;;21.52;25.40;99895.00;5126400;28;20043;-53
2021/12/22 10:36:23;;;;;;;9.75;7.50;;;;;;;21.53;25.10;99886.28;5129245;27;20158;-54
2021/12/22 10:38:49;;;;;;;11.68;8.07;;;;;;;21.54;25.16;99887.06;5128278;27;20138;-53
2021/12/22 10:41:14;;;;;;;9.45;7.00;;;;;;;21.54;25.28;99887.06;5128395;28;20062;-54
2021/12/22 10:43:43;;;;;;;9.82;7.45;;;;;;;21.55;25.02;99886.69;5126719;27;20100;-55
2021/12/22 10:46:14;;;;;;;10.00;7.50;;;;;;;21.55;25.11;99877.53;5126560;27;20452;-51
2021/12/22 10:51:33;;;;;;;9.18;7.13;;;;;;;21.56;25.45;99868.00;5128728;28;20038;-55
2021/12/22 10:54:07;;;;;;;10.18;7.53;;;;;;;21.58;25.46;99862.91;5127434;28;20047;-55
2021/12/22 10:56:35;;;;;;;12.18;7.35;;;;;;;21.58;25.53;99863.72;5128531;28;20449;-54
2021/12/22 10:59:18;;;;;;;10.05;7.10;;;;;;;21.60;25.66;99855.78;5129566;27;20050;-56
2021/12/22 11:01:53;;;;;;;8.48;6.45;;;;;;;21.61;25.51;99848.22;5129049;28;20043;-53
2021/12/22 11:04:23;;;;;;;9.25;6.80;;;;;;;21.61;25.58;99843.47;5128476;28;20050;-54
2021/12/22 11:06:52;;;;;;;10.18;7.07;;;;;;;21.62;25.55;99838.72;5125860;28;20475;-72
2021/12/22 11:09:19;;;;;;;8.90;6.68;;;;;;;21.63;25.77;99832.75;5128205;27;20464;-53
2021/12/22 11:11:54;;;;;;;9.13;7.18;;;;;;;21.63;25.88;99838.34;5120139;28;20083;-53
2021/12/22 11:14:22;;;;;;;8.93;6.72;;;;;;;21.65;25.75;99830.44;5126561;28;20130;-53
2021/12/22 11:16:57;;;;;;;9.75;7.05;;;;;;;21.70;25.93;99821.75;5129447;27;20396;-54
2021/12/22 11:19:25;;;;;;;8.82;6.40;;;;;;;21.80;25.81;99828.69;5121173;28;20534;-54
2021/12/22 11:22:07;;;;;;;9.70;6.88;;;;;;;21.86;25.78;99826.38;5121215;27;20055;-55
2021/12/22 11:24:37;;;;;;;8.97;6.87;;;;;;;21.91;25.61;99835.25;5126570;28;20129;-54
2021/12/22 11:27:03;;;;;;;8.23;6.20;;;;;;;21.92;25.75;99822.91;5128380;28;20284;-53
2021/12/22 11:29:29;;;;;;;8.55;6.20;;;;;;;21.92;25.90;99822.91;5128514;27;20076;-54
2021/12/22 11:31:54;;;;;;;8.68;6.40;;;;;;;21.96;25.84;99826.59;5129121;28;20050;-53
2021/12/22 11:34:21;;;;;;;9.40;6.57;;;;;;;21.92;25.88;99825.72;5129600;28;20031;-54
2021/12/22 11:36:49;;;;;;;8.65;6.20;;;;;;;21.91;25.95;99817.72;5125850;27;20039;-54
2021/12/22 11:39:15;;;;;;;7.60;5.72;;;;;;;21.87;26.17;99808.53;5125015;27;20050;-53
2021/12/22 11:41:53;;;;;;;8.02;6.30;;;;;;;21.82;25.97;99806.84;5125277;27;20047;-55
2021/12/22 11:44:19;;;;;;;8.90;6.30;;;;;;;21.82;26.28;99808.84;5126681;28;20035;-54
2021/12/22 11:46:46;;;;;;;8.30;6.05;;;;;;;21.78;26.10;99807.97;5121802;27;20054;-57
2021/12/22 11:49:11;;;;;;;8.48;6.22;;;;;;;21.76;26.17;99799.19;5128859;27;20043;-71
2021/12/22 11:51:36;;;;;;;7.78;5.82;;;;;;;21.73;26.52;99797.94;5129352;28;20039;-72
2021/12/22 11:54:09;;;;;;;7.82;6.03;;;;;;;21.69;26.32;99800.66;5131863;27;20035;-71
2021/12/22 11:56:43;;;;;;;8.02;6.03;;;;;;;21.69;26.19;99799.84;5129696;28;20515;-73
2021/12/22 11:59:39;;;;;;;8.07;5.90;;;;;;;21.65;26.43;99799.81;5126994;28;21381;-73